Tropical Cyclones
[Index]
Main Index Home Page Stock Weather Photos Extreme Storms Discussion Storm News and Storm Chasing Reports Tropical Cyclones / Hurricanes / Typhoons Weather Data and Links Wild Fires / Bushfires Weather Observation Techniques Weather Picture Catalogue Tornado Pictures and Reports Stock Video Footage and DVDs for sale
Season 2006-2007 Tropical Cyclone INDLALA Track Map
Season 2006-2007 Summaries: [BoM-AU] [JTWC-AU] [JTWC-SIO] [JTWC-SPAC] [JTWC-SH]
<<- Previous TC | JTWC 2006-2007 Season | Next TC ->>

click for intensity scale information  Lat/long Grid: Show Hide

 Date Labels: Show Hide

Joint Typhoon Warning Centre Cyclone Data

Name: INDLALA

07 Mar 2007 00:00 UTC to 17 Mar 2007 06:00 UTC

    date/time    lat    long     hPa   cat  kts
2007-03-07 00   11.6    66.1    1006         15          
2007-03-07 06   11.8    66.3    1006         15          
2007-03-07 12   12.2    66.4    1006         15          
2007-03-07 18   12.5    66.3    1006         15          
2007-03-08 00   12.7    66.2    1006         15          
2007-03-08 06   12.8    66.1    1006         15          
2007-03-08 12   12.9    65.9    1006         15          
2007-03-08 18   12.9    65.7    1006         15          
2007-03-09 00   12.9    65.5    1006         15          
2007-03-09 06   13.0    65.2    1006         15          
2007-03-09 12   13.3    64.8    1006         15          
2007-03-09 18   13.7    64.3    1006         15          
2007-03-10 00   14.3    63.5    1006         15          
2007-03-10 06   14.9    62.4    1004         20          
2007-03-10 12   14.9    61.2    1002         25          
2007-03-10 18   14.3    60.4    1000         30          
2007-03-11 00   13.9    59.7    1000         30          
2007-03-11 06   13.6    59.2    1000         30          
2007-03-11 12   13.5    59.0    1000         30          
2007-03-11 18   13.3    58.5     996         35          
2007-03-12 00   13.1    58.0     994    1    40          
2007-03-12 06   13.0    57.5     991    1    45          
2007-03-12 12   12.9    57.0     984    2    55          
2007-03-12 12   12.9    57.0     984    2    55          
2007-03-12 18   12.8    56.2     978    2    60          
2007-03-12 18   12.8    56.2     978    2    60          
2007-03-13 00   12.8    55.4     972    2    70          
2007-03-13 00   12.8    55.4     972    2    70          
2007-03-13 00   12.8    55.4     972    2    70          
2007-03-13 06   12.9    54.7     967    3    75          
2007-03-13 06   12.9    54.7     967    3    75          
2007-03-13 06   12.9    54.7     967    3    75          
2007-03-13 12   13.1    54.1     967    3    75          
2007-03-13 12   13.1    54.1     967    3    75          
2007-03-13 12   13.1    54.1     967    3    75          
2007-03-13 18   13.3    53.5     967    3    75          
2007-03-13 18   13.3    53.5     967    3    75          
2007-03-13 18   13.3    53.5     967    3    75          
2007-03-14 00   13.7    52.8     954    3    90          
2007-03-14 00   13.7    52.8     954    3    90          
2007-03-14 00   13.7    52.8     954    3    90          
2007-03-14 06   14.1    52.2     944    4   100          
2007-03-14 06   14.1    52.2     944    4   100          
2007-03-14 06   14.1    52.2     944    4   100          
2007-03-14 12   14.5    51.5     927    4   115          
2007-03-14 12   14.5    51.5     927    4   115          
2007-03-14 12   14.5    51.5     927    4   115          
2007-03-14 18   14.7    51.0     933    4   120          
2007-03-14 18   14.7    51.0     933    4   120          
2007-03-14 18   14.7    51.0     933    4   120          
2007-03-15 00   14.8    50.5     941    4   110          
2007-03-15 00   14.8    50.5     941    4   110          
2007-03-15 00   14.8    50.5     941    4   110          
2007-03-15 06   15.0    50.1     944    4   100          
2007-03-15 06   15.0    50.1     944    4   100          
2007-03-15 06   15.0    50.1     944    4   100          
2007-03-15 12   15.4    49.7     958    3    85          
2007-03-15 12   15.4    49.7     958    3    85          
2007-03-15 12   15.4    49.7     958    3    85          
2007-03-15 18   15.8    49.2     972    2    70          
2007-03-15 18   15.8    49.2     972    2    70          
2007-03-15 18   15.8    49.2     972    2    70          
2007-03-16 00   16.2    48.6     984    2    55          
2007-03-16 00   16.2    48.6     984    2    55          
2007-03-16 06   16.4    47.9     997         35          
2007-03-16 12   16.5    47.5    1000         30          
2007-03-16 18   16.6    47.2    1000         30          
2007-03-17 00   16.9    47.1    1002         25          
2007-03-17 06   17.1    47.5    1002         25          
Winds are 1-min average.

Tropical cyclone tracks developed by Michael Bath using data from the Joint Typhoon Warning Centre Best Tracks and Google Maps.


[Australian Severe Weather index] [Copyright Notice] [Email Contacts] [Search This Site] [Privacy Policy]
Document: tropical_cyclone_indlala.htm Updated: 28 June 2017